Time;durP1;ratioP1;P1;durP2;ratioP2;P2;SDS_P1;SDS_P2;PMS_P1;PMS_P2;Temp;Humidity;BMP_temperature;BMP_pressure;BME280_temperature;BME280_humidity;BME280_pressure;Samples;Min_cycle;Max_cycle;Signal;HPM_P1;HPM_P2
2024/03/02 00:00:25;;;;;;;2.03;1.13;;;7.80;99.90;;;;;;5054997;28;20171;-70
2024/03/02 00:02:51;;;;;;;1.70;1.20;;;7.70;99.90;;;;;;5054928;28;20431;-69
2024/03/02 00:05:22;;;;;;;2.10;1.23;;;7.70;99.90;;;;;;5055508;28;20394;-71
2024/03/02 00:07:58;;;;;;;1.10;1.00;;;7.70;99.90;;;;;;5055386;28;20233;-70
2024/03/02 00:10:39;;;;;;;1.47;1.37;;;7.70;99.90;;;;;;5053343;28;20459;-70
2024/03/02 00:13:06;;;;;;;2.10;1.33;;;7.70;99.90;;;;;;5054130;28;20397;-70
2024/03/02 00:15:35;;;;;;;1.27;1.17;;;7.60;99.90;;;;;;5055026;28;20408;-69
2024/03/02 00:18:01;;;;;;;1.97;1.83;;;7.60;99.90;;;;;;5053668;28;20421;-70
2024/03/02 00:20:29;;;;;;;1.77;1.53;;;7.60;99.90;;;;;;5055084;28;20764;-70
2024/03/02 00:23:06;;;;;;;2.43;1.73;;;7.60;99.90;;;;;;5053208;28;20527;-70
2024/03/02 00:25:47;;;;;;;4.10;2.33;;;7.50;99.90;;;;;;5055053;28;20396;-70
2024/03/02 00:28:24;;;;;;;2.43;2.23;;;7.50;99.90;;;;;;5054881;28;20788;-70
2024/03/02 00:31:02;;;;;;;4.43;2.33;;;7.60;99.90;;;;;;5053700;28;20427;-71
2024/03/02 00:33:32;;;;;;;2.50;2.30;;;7.60;99.90;;;;;;5054494;28;20401;-70
2024/03/02 00:35:57;;;;;;;2.27;1.70;;;7.60;99.90;;;;;;5054763;28;20404;-70
2024/03/02 00:38:23;;;;;;;2.40;2.00;;;7.70;99.90;;;;;;5054671;28;20932;-70
2024/03/02 00:40:49;;;;;;;1.83;1.67;;;7.80;99.90;;;;;;5052732;28;20195;-70
2024/03/02 00:43:52;;;;;;;2.17;1.43;;;7.80;99.90;;;;;;5048642;28;20170;-70
2024/03/02 00:46:19;;;;;;;4.50;1.63;;;7.80;99.90;;;;;;5049076;28;20175;-70
2024/03/02 00:48:51;;;;;;;3.10;1.70;;;7.80;99.90;;;;;;5054160;28;20974;-69
2024/03/02 00:51:17;;;;;;;2.43;1.60;;;7.80;99.90;;;;;;5054508;28;20436;-70
2024/03/02 00:53:42;;;;;;;6.10;1.73;;;7.80;99.90;;;;;;5054115;28;20457;-71
2024/03/02 00:56:11;;;;;;;1.77;1.67;;;7.80;99.90;;;;;;5054270;28;20195;-69
2024/03/02 00:58:37;;;;;;;2.93;1.87;;;7.70;99.90;;;;;;5053890;28;20197;-70
2024/03/02 01:01:03;;;;;;;2.30;1.73;;;7.60;99.90;;;;;;5052876;28;20457;-70
2024/03/02 01:03:28;;;;;;;1.87;1.57;;;7.50;99.90;;;;;;5054024;28;20810;-70
2024/03/02 01:05:54;;;;;;;1.90;1.63;;;7.50;99.90;;;;;;5053017;28;20254;-71
2024/03/02 01:08:19;;;;;;;1.80;1.50;;;7.40;99.90;;;;;;5054210;28;20199;-70
2024/03/02 01:10:45;;;;;;;2.30;1.47;;;7.40;99.90;;;;;;5053146;28;20637;-70
2024/03/02 01:13:10;;;;;;;2.90;2.03;;;7.40;99.90;;;;;;5052930;28;20167;-70
2024/03/02 01:15:36;;;;;;;3.20;1.30;;;7.40;99.90;;;;;;5053722;28;20599;-70
2024/03/02 01:18:02;;;;;;;2.70;1.53;;;7.40;99.90;;;;;;5051941;28;20195;-70
2024/03/02 01:20:27;;;;;;;1.47;1.13;;;7.40;99.90;;;;;;5049777;28;20250;-70
2024/03/02 01:22:53;;;;;;;3.80;2.10;;;7.40;99.90;;;;;;5053306;28;20212;-69
2024/03/02 01:25:18;;;;;;;1.73;1.10;;;7.40;99.90;;;;;;5053831;28;20163;-70
2024/03/02 01:27:44;;;;;;;1.40;1.30;;;7.40;99.90;;;;;;5052465;28;20259;-70
2024/03/02 01:30:11;;;;;;;2.30;1.50;;;7.40;99.90;;;;;;5054066;28;20163;-70
2024/03/02 01:32:38;;;;;;;2.00;1.40;;;7.50;99.90;;;;;;5053467;28;20174;-70
2024/03/02 01:35:04;;;;;;;4.73;1.50;;;7.60;99.90;;;;;;5053661;28;20776;-70
2024/03/02 01:37:30;;;;;;;2.13;1.30;;;7.60;99.90;;;;;;5053691;28;20474;-69
2024/03/02 01:39:55;;;;;;;4.87;1.63;;;7.60;99.90;;;;;;5053405;28;20413;-70
2024/03/02 01:42:21;;;;;;;8.57;1.87;;;7.70;99.90;;;;;;5053056;28;20791;-70
2024/03/02 01:44:46;;;;;;;1.73;1.30;;;7.80;99.90;;;;;;5049797;28;20178;-71
2024/03/02 01:47:12;;;;;;;3.90;1.60;;;7.80;99.90;;;;;;5052271;28;20316;-70
2024/03/02 01:49:38;;;;;;;1.63;1.33;;;7.90;99.90;;;;;;5053082;28;20638;-69
2024/03/02 01:52:04;;;;;;;1.83;1.60;;;7.90;99.90;;;;;;5052913;28;20664;-69
2024/03/02 01:54:29;;;;;;;1.80;1.70;;;7.90;99.90;;;;;;5053357;28;20405;-70
2024/03/02 01:56:55;;;;;;;2.40;1.37;;;7.80;99.90;;;;;;5053114;28;20222;-70
2024/03/02 01:59:21;;;;;;;1.70;1.60;;;7.80;99.90;;;;;;5051997;28;20260;-70
2024/03/02 02:01:47;;;;;;;1.53;1.27;;;7.70;99.90;;;;;;5053115;28;20449;-70
2024/03/02 02:04:13;;;;;;;1.73;1.60;;;7.70;99.90;;;;;;5052964;28;20412;-69
2024/03/02 02:06:39;;;;;;;1.87;1.23;;;7.60;99.90;;;;;;5053061;28;20159;-71
2024/03/02 02:09:05;;;;;;;1.30;1.20;;;7.70;99.90;;;;;;5051590;28;20996;-69
2024/03/02 02:11:31;;;;;;;3.37;1.00;;;7.60;99.90;;;;;;5052478;28;20233;-70
2024/03/02 02:13:56;;;;;;;1.03;0.80;;;7.60;99.90;;;;;;5051108;28;20425;-70
2024/03/02 02:16:22;;;;;;;2.53;1.30;;;7.70;99.90;;;;;;5052672;28;20213;-69
2024/03/02 02:18:48;;;;;;;3.97;1.20;;;7.80;99.90;;;;;;5050305;28;20195;-70
2024/03/02 02:21:13;;;;;;;2.23;1.33;;;8.00;99.90;;;;;;5052407;28;20206;-70
2024/03/02 02:23:39;;;;;;;1.47;1.37;;;7.90;99.90;;;;;;5052434;28;20166;-71
2024/03/02 02:26:05;;;;;;;3.67;1.50;;;8.00;99.90;;;;;;5052746;28;20533;-69
2024/03/02 02:28:30;;;;;;;1.33;1.23;;;8.10;99.90;;;;;;5052469;28;20232;-70
2024/03/02 02:30:56;;;;;;;1.83;0.90;;;8.10;99.90;;;;;;5052568;28;20167;-70
2024/03/02 02:33:22;;;;;;;2.43;1.30;;;8.20;99.90;;;;;;5052352;28;20186;-70
2024/03/02 02:35:47;;;;;;;1.90;1.53;;;8.30;99.90;;;;;;5052538;28;20167;-70
2024/03/02 02:38:13;;;;;;;3.33;1.23;;;8.30;99.90;;;;;;5052295;28;20214;-70
2024/03/02 02:40:38;;;;;;;1.30;1.20;;;8.30;99.90;;;;;;5052283;28;20678;-70
2024/03/02 02:43:04;;;;;;;2.50;1.83;;;8.30;99.90;;;;;;5052143;28;20188;-70
2024/03/02 02:45:30;;;;;;;1.50;1.00;;;8.40;99.90;;;;;;5046960;28;20588;-71
2024/03/02 02:47:55;;;;;;;2.03;1.30;;;8.40;99.90;;;;;;5052146;28;20285;-70
2024/03/02 02:50:21;;;;;;;1.13;0.97;;;8.40;99.90;;;;;;5052206;28;20500;-69
2024/03/02 02:52:46;;;;;;;2.43;1.40;;;8.40;99.90;;;;;;5051908;28;20653;-70
2024/03/02 02:55:13;;;;;;;2.70;1.20;;;8.30;99.90;;;;;;5052117;28;20175;-70
2024/03/02 02:57:40;;;;;;;3.67;1.17;;;8.10;99.90;;;;;;5052081;28;20181;-71
2024/03/02 03:00:13;;;;;;;1.43;1.20;;;8.20;99.90;;;;;;5052140;28;20408;-70
2024/03/02 03:02:41;;;;;;;2.80;1.30;;;8.20;99.90;;;;;;5050465;28;20463;-69
2024/03/02 03:05:08;;;;;;;1.00;0.90;;;8.30;99.90;;;;;;5052145;28;20394;-70
2024/03/02 03:07:34;;;;;;;1.40;1.03;;;8.30;99.90;;;;;;5051924;28;20432;-69
2024/03/02 03:10:00;;;;;;;1.60;1.20;;;8.30;99.90;;;;;;5051974;28;20405;-70
2024/03/02 03:12:26;;;;;;;2.10;1.40;;;8.30;99.90;;;;;;5051684;28;20909;-70
2024/03/02 03:14:51;;;;;;;1.87;1.30;;;8.30;99.90;;;;;;5048716;28;20677;-70
2024/03/02 03:17:17;;;;;;;1.57;1.20;;;8.30;99.90;;;;;;5051339;28;20195;-71
2024/03/02 03:19:42;;;;;;;1.03;0.93;;;8.30;99.90;;;;;;5051848;28;20166;-70
2024/03/02 03:22:08;;;;;;;1.00;0.80;;;8.30;99.90;;;;;;5050615;28;20193;-70
2024/03/02 03:24:34;;;;;;;2.33;1.13;;;8.40;99.90;;;;;;5051831;28;20190;-70
2024/03/02 03:26:59;;;;;;;1.47;0.90;;;8.40;99.90;;;;;;5051626;28;20658;-70
2024/03/02 03:29:25;;;;;;;2.20;1.20;;;8.60;99.90;;;;;;5051606;28;20167;-70
2024/03/02 03:31:50;;;;;;;1.60;1.10;;;8.70;99.90;;;;;;5050644;28;20173;-70
2024/03/02 03:34:16;;;;;;;1.60;1.20;;;8.70;99.90;;;;;;5051472;28;20548;-69
2024/03/02 03:36:42;;;;;;;2.33;1.30;;;8.80;99.90;;;;;;5051582;28;20254;-70
2024/03/02 03:39:07;;;;;;;1.20;0.90;;;8.90;99.90;;;;;;5050222;28;20179;-69
2024/03/02 03:41:33;;;;;;;1.50;1.00;;;9.00;99.90;;;;;;5051555;28;20960;-71
2024/03/02 03:43:58;;;;;;;2.50;1.13;;;9.00;99.90;;;;;;5051263;28;20348;-70
2024/03/02 03:46:24;;;;;;;3.30;1.70;;;9.00;99.90;;;;;;5047435;28;20183;-69
2024/03/02 03:48:49;;;;;;;1.47;1.27;;;8.90;99.90;;;;;;5050007;28;20186;-69
2024/03/02 03:51:15;;;;;;;1.37;1.07;;;8.80;99.90;;;;;;5051514;28;20646;-70
2024/03/02 03:53:40;;;;;;;2.17;1.20;;;8.70;99.90;;;;;;5049828;28;20675;-70
2024/03/02 03:56:06;;;;;;;1.50;1.33;;;8.60;99.90;;;;;;5050401;28;20248;-70
2024/03/02 03:58:31;;;;;;;1.50;1.20;;;8.60;99.90;;;;;;5051330;28;20195;-70
2024/03/02 04:00:57;;;;;;;1.77;1.33;;;8.50;99.90;;;;;;5051414;28;20193;-70
2024/03/02 04:03:22;;;;;;;1.43;1.07;;;8.40;99.90;;;;;;5050105;28;20171;-70
2024/03/02 04:05:48;;;;;;;2.30;1.20;;;8.30;99.90;;;;;;5051891;28;20499;-70
2024/03/02 04:08:13;;;;;;;2.80;1.20;;;8.10;99.90;;;;;;5051377;28;20186;-70
2024/03/02 04:10:40;;;;;;;1.57;1.10;;;8.00;99.90;;;;;;5051347;28;20186;-70
2024/03/02 04:13:05;;;;;;;1.40;1.30;;;7.90;99.90;;;;;;5050902;28;20159;-70
2024/03/02 04:15:31;;;;;;;1.30;1.17;;;7.80;99.90;;;;;;5044614;28;20834;-70
2024/03/02 04:17:56;;;;;;;2.93;1.00;;;7.60;99.90;;;;;;5049540;28;20198;-70
2024/03/02 04:20:22;;;;;;;3.23;1.37;;;7.50;99.90;;;;;;5050979;28;20174;-70
2024/03/02 04:22:47;;;;;;;1.67;1.57;;;7.40;99.90;;;;;;5051288;28;20238;-70
2024/03/02 04:25:13;;;;;;;2.20;1.40;;;7.30;99.90;;;;;;5049998;28;20194;-70
2024/03/02 04:27:39;;;;;;;2.37;1.40;;;7.20;99.90;;;;;;5051113;28;20191;-70
2024/03/02 04:30:05;;;;;;;5.87;1.70;;;7.10;99.90;;;;;;5049916;28;20209;-69
2024/03/02 04:32:31;;;;;;;2.60;1.73;;;7.20;99.90;;;;;;5050073;28;20650;-70
2024/03/02 04:34:57;;;;;;;1.77;1.03;;;7.10;99.90;;;;;;5054640;28;20405;-70
2024/03/02 04:37:22;;;;;;;1.30;1.00;;;7.10;99.90;;;;;;5054489;28;20429;-70
2024/03/02 04:39:48;;;;;;;3.30;1.53;;;7.00;99.90;;;;;;5053520;28;20175;-70
2024/03/02 04:42:13;;;;;;;1.80;1.40;;;7.10;99.90;;;;;;5054381;28;20225;-70
2024/03/02 04:44:39;;;;;;;1.77;1.47;;;7.10;99.90;;;;;;5051761;28;20248;-69
2024/03/02 04:47:05;;;;;;;1.97;1.50;;;7.10;99.90;;;;;;5053962;28;20199;-70
2024/03/02 04:49:31;;;;;;;3.27;1.10;;;7.20;99.90;;;;;;5054256;28;20174;-70
2024/03/02 04:51:59;;;;;;;4.47;1.50;;;7.30;99.90;;;;;;5054233;28;20425;-70
2024/03/02 04:54:25;;;;;;;2.80;1.93;;;7.40;99.90;;;;;;5054558;28;20393;-70
2024/03/02 04:56:51;;;;;;;4.50;1.20;;;7.50;99.90;;;;;;5053289;28;20892;-69
2024/03/02 04:59:19;;;;;;;1.30;1.07;;;7.60;99.90;;;;;;5054437;28;20167;-70
2024/03/02 05:01:46;;;;;;;1.50;1.40;;;7.70;99.90;;;;;;5054305;28;20203;-70
2024/03/02 05:04:11;;;;;;;2.93;1.20;;;7.70;99.90;;;;;;5053956;28;20432;-70
2024/03/02 05:06:41;;;;;;;3.70;1.00;;;7.70;99.90;;;;;;5054226;28;20429;-70
2024/03/02 05:09:09;;;;;;;1.40;1.30;;;7.80;99.90;;;;;;5054195;28;20162;-70
2024/03/02 05:14:04;;;;;;;3.30;1.90;;;8.00;99.90;;;;;;5053692;28;20496;-70
2024/03/02 05:16:33;;;;;;;1.73;1.53;;;8.10;99.90;;;;;;5047696;28;20436;-70
2024/03/02 05:18:59;;;;;;;1.77;1.10;;;8.20;99.90;;;;;;5053935;28;20917;-70
2024/03/02 05:21:24;;;;;;;0.93;0.83;;;8.20;99.90;;;;;;5053919;28;20463;-70
2024/03/02 05:23:50;;;;;;;4.90;2.03;;;8.30;99.90;;;;;;5053529;28;20198;-70
2024/03/02 05:26:15;;;;;;;3.40;2.00;;;8.30;99.90;;;;;;5053679;28;20159;-70
2024/03/02 05:28:41;;;;;;;2.13;1.50;;;8.10;99.90;;;;;;5053788;28;20189;-70
2024/03/02 05:31:06;;;;;;;1.87;1.30;;;8.00;99.90;;;;;;5053838;28;20202;-70
2024/03/02 05:33:33;;;;;;;2.63;1.43;;;8.00;99.90;;;;;;5049729;28;20184;-70
2024/03/02 05:35:58;;;;;;;1.47;1.27;;;7.80;99.90;;;;;;5053551;28;20175;-70
2024/03/02 05:38:24;;;;;;;3.00;1.63;;;7.70;99.90;;;;;;5053268;28;20994;-69
2024/03/02 05:40:50;;;;;;;2.00;1.77;;;7.60;99.90;;;;;;5053324;28;20208;-69
2024/03/02 05:43:15;;;;;;;1.27;1.17;;;7.40;99.90;;;;;;5053380;28;20188;-70
2024/03/02 05:45:41;;;;;;;4.30;2.00;;;7.10;99.90;;;;;;5050637;28;20736;-70
2024/03/02 05:48:07;;;;;;;3.03;1.97;;;7.00;99.90;;;;;;5049797;28;20191;-70
2024/03/02 05:50:33;;;;;;;1.60;1.50;;;6.70;99.90;;;;;;5053301;28;20205;-70
2024/03/02 05:52:58;;;;;;;5.10;2.13;;;6.60;99.90;;;;;;5051712;28;20996;-70
2024/03/02 05:55:24;;;;;;;2.20;1.60;;;6.40;99.90;;;;;;5053021;28;20166;-70
2024/03/02 05:58:20;;;;;;;2.20;1.70;;;6.50;99.90;;;;;;5053234;28;20190;-69
2024/03/02 06:00:44;;;;;;;2.10;1.47;;;6.40;99.90;;;;;;5053035;28;20580;-70
2024/03/02 06:03:10;;;;;;;1.93;1.80;;;6.30;99.90;;;;;;5052918;28;20488;-70
2024/03/02 06:05:36;;;;;;;2.67;2.07;;;6.20;99.90;;;;;;5051447;28;20169;-70
2024/03/02 06:08:01;;;;;;;2.93;1.83;;;6.20;99.90;;;;;;5050660;28;20198;-70
2024/03/02 06:10:27;;;;;;;2.50;2.30;;;6.30;99.90;;;;;;5052789;28;20175;-70
2024/03/02 06:12:52;;;;;;;1.80;1.70;;;6.40;99.90;;;;;;5052614;28;20249;-70
2024/03/02 06:15:18;;;;;;;2.80;1.90;;;6.50;99.90;;;;;;5052928;28;20228;-69
2024/03/02 06:17:44;;;;;;;1.80;1.70;;;6.60;99.90;;;;;;5052805;28;20211;-70
2024/03/02 06:20:10;;;;;;;1.57;1.47;;;6.60;99.90;;;;;;5052876;28;20500;-70
2024/03/02 06:22:36;;;;;;;1.83;1.57;;;6.70;99.90;;;;;;5052536;28;20190;-70
2024/03/02 06:25:01;;;;;;;2.20;1.70;;;6.70;99.90;;;;;;5052777;28;20401;-70
2024/03/02 06:27:27;;;;;;;1.60;1.47;;;6.80;99.90;;;;;;5052636;28;20186;-70
2024/03/02 06:29:53;;;;;;;2.53;2.30;;;6.90;99.90;;;;;;5052733;28;20240;-70
2024/03/02 06:32:18;;;;;;;3.33;1.57;;;7.00;99.90;;;;;;5052511;28;20159;-70
2024/03/02 06:34:44;;;;;;;2.43;1.67;;;7.10;99.90;;;;;;5052511;28;20504;-70
2024/03/02 06:37:09;;;;;;;2.33;1.60;;;7.20;99.90;;;;;;5051238;28;20190;-70
2024/03/02 06:39:36;;;;;;;2.37;1.63;;;7.20;99.90;;;;;;5052459;28;20174;-70
2024/03/02 06:42:01;;;;;;;2.20;1.63;;;7.30;99.90;;;;;;5052016;28;20293;-71
2024/03/02 06:44:27;;;;;;;1.47;1.37;;;7.40;99.90;;;;;;5051347;28;20492;-70
2024/03/02 06:46:52;;;;;;;2.50;1.50;;;7.40;99.90;;;;;;5045602;28;20225;-70
2024/03/02 06:49:18;;;;;;;1.80;1.63;;;7.40;99.90;;;;;;5051993;28;20441;-70
2024/03/02 06:51:44;;;;;;;2.20;1.73;;;7.40;99.90;;;;;;5051998;28;20553;-70
2024/03/02 06:54:10;;;;;;;1.40;1.10;;;7.40;99.90;;;;;;5051795;28;20218;-70
2024/03/02 06:56:35;;;;;;;2.27;1.33;;;7.30;99.90;;;;;;5051726;28;20448;-70
2024/03/02 06:59:01;;;;;;;2.07;1.50;;;7.40;99.90;;;;;;5052036;28;20174;-70
2024/03/02 07:01:27;;;;;;;1.60;1.20;;;7.40;99.90;;;;;;5052071;28;20198;-71
2024/03/02 07:03:53;;;;;;;3.40;1.60;;;7.60;99.90;;;;;;5051673;28;20691;-70
2024/03/02 07:06:18;;;;;;;3.17;1.27;;;7.70;99.90;;;;;;5052096;28;20409;-70
2024/03/02 07:08:44;;;;;;;3.10;1.47;;;7.80;99.90;;;;;;5051807;28;20384;-70
2024/03/02 07:11:09;;;;;;;6.10;1.70;;;8.00;99.90;;;;;;5051989;28;20171;-71
2024/03/02 07:13:35;;;;;;;3.33;1.63;;;8.20;99.90;;;;;;5051564;28;20163;-70
2024/03/02 07:18:33;;;;;;;1.20;1.10;;;8.50;99.90;;;;;;5051824;28;20202;-70
2024/03/02 07:21:00;;;;;;;1.30;1.20;;;8.60;99.90;;;;;;5051817;28;20445;-70
2024/03/02 07:23:27;;;;;;;2.27;1.37;;;8.70;99.90;;;;;;5051463;28;20410;-71
2024/03/02 07:25:56;;;;;;;5.27;1.67;;;8.90;99.90;;;;;;5051597;28;20394;-71
2024/03/02 07:28:27;;;;;;;1.50;1.30;;;9.00;99.90;;;;;;5051619;28;20912;-70
2024/03/02 07:31:04;;;;;;;1.50;1.30;;;9.10;99.90;;;;;;5051656;28;20405;-71
2024/03/02 07:33:33;;;;;;;1.73;1.40;;;9.30;99.90;;;;;;5051417;28;20447;-70
2024/03/02 07:36:00;;;;;;;1.93;1.67;;;9.40;99.90;;;;;;5049050;28;20512;-70
2024/03/02 07:38:26;;;;;;;1.63;1.43;;;9.50;99.90;;;;;;5048233;28;20445;-70
2024/03/02 07:40:55;;;;;;;1.77;1.30;;;9.60;99.90;;;;;;5049956;28;20449;-70
2024/03/02 07:43:21;;;;;;;1.30;1.07;;;9.80;99.90;;;;;;5051166;28;20405;-70
2024/03/02 07:45:48;;;;;;;2.40;1.50;;;9.80;99.90;;;;;;5046362;28;20421;-70
2024/03/02 07:48:14;;;;;;;1.67;1.23;;;9.90;99.90;;;;;;5051117;28;20433;-70
2024/03/02 07:50:39;;;;;;;3.93;1.30;;;10.10;99.90;;;;;;5050135;28;20413;-70
2024/03/02 07:53:06;;;;;;;2.50;1.17;;;10.40;99.90;;;;;;5051186;28;20433;-71
2024/03/02 07:55:31;;;;;;;2.07;1.27;;;10.80;99.90;;;;;;5051517;28;20243;-70
2024/03/02 07:57:57;;;;;;;2.33;1.40;;;11.40;99.90;;;;;;5051425;28;20449;-70
2024/03/02 08:00:23;;;;;;;2.43;1.50;;;12.20;99.90;;;;;;5051508;28;20827;-71
2024/03/02 08:02:50;;;;;;;2.83;1.30;;;12.80;99.90;;;;;;5050997;28;20198;-68
2024/03/02 08:05:16;;;;;;;1.53;1.27;;;13.20;99.90;;;;;;5038855;28;20479;-71
2024/03/02 08:07:43;;;;;;;2.20;1.27;;;13.10;99.90;;;;;;5042964;28;20425;-69
2024/03/02 08:10:09;;;;;;;1.50;1.20;;;13.40;99.90;;;;;;5055227;28;20167;-68
2024/03/02 08:12:35;;;;;;;1.40;0.90;;;14.70;99.90;;;;;;5054890;28;20463;-68
2024/03/02 08:15:00;;;;;;;1.10;0.83;;;16.30;99.90;;;;;;5055253;28;20645;-68
2024/03/02 08:17:26;;;;;;;1.23;1.13;;;17.70;94.10;;;;;;5055277;28;20557;-66
2024/03/02 08:19:51;;;;;;;1.30;0.90;;;18.60;80.60;;;;;;5055202;28;20691;-69
2024/03/02 08:22:17;;;;;;;1.13;1.03;;;19.00;69.10;;;;;;5054651;28;20202;-67
2024/03/02 08:24:42;;;;;;;2.50;1.10;;;18.80;66.00;;;;;;5055118;28;20166;-66
2024/03/02 08:27:09;;;;;;;1.67;1.00;;;18.10;62.40;;;;;;5054939;28;20273;-69
2024/03/02 08:29:34;;;;;;;1.67;0.90;;;18.20;64.80;;;;;;5055000;28;20159;-68
2024/03/02 08:32:00;;;;;;;4.20;0.97;;;18.40;63.20;;;;;;5054694;28;20412;-69
2024/03/02 08:34:26;;;;;;;4.03;1.10;;;18.10;61.70;;;;;;5044763;28;20183;-68
2024/03/02 08:36:51;;;;;;;1.40;0.97;;;17.60;60.50;;;;;;5053279;28;20194;-68
2024/03/02 08:39:19;;;;;;;1.73;1.10;;;17.00;62.40;;;;;;5050287;28;20607;-67
2024/03/02 08:41:46;;;;;;;1.40;0.90;;;17.00;63.50;;;;;;5054735;28;20229;-69
2024/03/02 08:44:13;;;;;;;1.60;0.90;;;17.10;63.50;;;;;;5054524;28;20480;-69
2024/03/02 08:46:39;;;;;;;6.10;1.10;;;17.70;63.90;;;;;;5047935;28;20418;-67
2024/03/02 08:49:05;;;;;;;3.93;1.50;;;18.40;62.20;;;;;;5048788;28;20401;-68
2024/03/02 08:51:31;;;;;;;1.13;0.83;;;19.50;59.00;;;;;;5054732;28;20892;-68
2024/03/02 08:53:57;;;;;;;1.30;1.00;;;20.20;56.90;;;;;;5054255;28;20405;-68
2024/03/02 08:56:24;;;;;;;2.53;1.30;;;21.10;53.70;;;;;;5054486;28;20447;-66
2024/03/02 08:58:51;;;;;;;3.23;0.87;;;21.90;51.00;;;;;;5054142;28;20429;-67
2024/03/02 09:01:17;;;;;;;3.37;0.70;;;22.50;49.80;;;;;;5054231;28;20449;-67
2024/03/02 09:03:45;;;;;;;2.00;1.00;;;23.00;47.20;;;;;;5052637;28;20493;-67
2024/03/02 09:06:13;;;;;;;1.30;0.97;;;23.40;45.40;;;;;;5054248;28;20397;-67
2024/03/02 09:08:39;;;;;;;1.77;0.93;;;23.60;45.10;;;;;;5054006;28;20773;-67
2024/03/02 09:11:06;;;;;;;5.60;0.77;;;23.70;44.70;;;;;;5054121;28;20412;-67
2024/03/02 09:13:32;;;;;;;2.47;0.73;;;24.50;43.30;;;;;;5053806;28;20198;-67
2024/03/02 09:15:58;;;;;;;0.90;0.70;;;24.70;41.70;;;;;;5053965;28;20449;-67
2024/03/02 09:18:23;;;;;;;1.40;0.93;;;24.80;41.40;;;;;;5053712;28;20896;-66
2024/03/02 09:20:49;;;;;;;4.93;1.17;;;25.40;40.00;;;;;;5052654;28;20193;-67
2024/03/02 09:23:14;;;;;;;2.50;0.90;;;25.90;38.60;;;;;;5053629;28;20638;-67
2024/03/02 09:25:40;;;;;;;1.50;0.90;;;25.80;37.70;;;;;;5053923;28;20213;-66
2024/03/02 09:28:07;;;;;;;1.40;0.83;;;26.10;36.90;;;;;;5053738;28;20241;-67
2024/03/02 09:30:32;;;;;;;1.67;0.90;;;26.30;36.30;;;;;;5053855;28;20194;-67
2024/03/02 09:32:58;;;;;;;0.90;0.80;;;25.80;35.40;;;;;;5053288;28;20441;-68
2024/03/02 09:35:24;;;;;;;1.20;0.77;;;26.10;36.00;;;;;;5053555;28;20313;-67
2024/03/02 09:37:50;;;;;;;1.77;0.90;;;25.80;35.40;;;;;;5053504;28;20195;-67
2024/03/02 09:40:16;;;;;;;4.70;0.87;;;25.80;35.50;;;;;;5053561;28;20964;-67
2024/03/02 09:42:42;;;;;;;2.73;0.93;;;25.00;35.90;;;;;;5053245;28;20229;-67
2024/03/02 09:45:09;;;;;;;1.30;1.00;;;24.90;37.00;;;;;;5053558;28;20246;-67
2024/03/02 09:47:34;;;;;;;1.40;1.10;;;24.70;36.30;;;;;;5053414;28;20504;-67
2024/03/02 09:50:00;;;;;;;1.07;0.80;;;24.40;36.10;;;;;;5052121;28;20829;-66
2024/03/02 09:52:26;;;;;;;0.93;0.77;;;23.50;36.60;;;;;;5053065;28;20554;-66
2024/03/02 09:54:52;;;;;;;1.10;0.90;;;23.00;37.20;;;;;;5053409;28;20531;-67
2024/03/02 09:57:17;;;;;;;5.27;1.30;;;23.00;37.80;;;;;;5053267;28;20545;-67
2024/03/02 09:59:43;;;;;;;1.70;1.03;;;23.90;38.30;;;;;;5053346;28;20535;-67
2024/03/02 10:02:08;;;;;;;1.57;0.90;;;24.80;37.00;;;;;;5052850;28;20216;-67
2024/03/02 10:04:35;;;;;;;1.50;0.80;;;25.00;35.50;;;;;;5053202;28;20171;-67
2024/03/02 10:07:18;;;;;;;2.03;1.47;;;25.50;35.70;;;;;;5053147;28;20174;-67
2024/03/02 10:09:46;;;;;;;6.33;1.30;;;25.90;34.90;;;;;;5053088;28;20413;-68
2024/03/02 10:12:13;;;;;;;2.43;1.10;;;26.10;35.00;;;;;;5052682;28;20412;-67
2024/03/02 10:14:39;;;;;;;5.33;1.33;;;26.20;34.00;;;;;;5052954;28;20539;-67
2024/03/02 10:17:07;;;;;;;1.53;1.03;;;26.50;33.90;;;;;;5052892;28;20519;-67
2024/03/02 10:19:37;;;;;;;1.00;0.87;;;26.50;33.60;;;;;;5053123;28;20520;-67
2024/03/02 10:22:05;;;;;;;4.30;1.00;;;27.00;33.70;;;;;;5052518;28;20445;-67
2024/03/02 10:24:44;;;;;;;3.83;1.00;;;27.40;33.10;;;;;;5052790;28;20402;-67
2024/03/02 10:27:18;;;;;;;1.23;0.90;;;27.60;32.60;;;;;;5052586;28;20421;-68
2024/03/02 10:29:47;;;;;;;1.30;0.97;;;27.90;31.50;;;;;;5052741;28;20405;-67
2024/03/02 10:32:13;;;;;;;1.03;0.80;;;27.80;31.30;;;;;;5051933;28;20503;-67
2024/03/02 10:34:45;;;;;;;2.27;1.00;;;27.40;31.40;;;;;;5046858;28;20418;-67
2024/03/02 10:37:12;;;;;;;7.73;1.33;;;27.40;31.80;;;;;;5039954;28;20186;-67
2024/03/02 10:39:41;;;;;;;1.13;0.83;;;27.10;31.70;;;;;;5052079;28;20421;-67
2024/03/02 10:42:08;;;;;;;1.00;0.73;;;27.30;31.40;;;;;;5052027;28;20554;-67
2024/03/02 10:44:34;;;;;;;2.50;0.93;;;27.50;31.50;;;;;;5052403;28;20434;-67
2024/03/02 10:47:02;;;;;;;3.70;1.03;;;27.70;31.60;;;;;;5050306;28;20567;-68
2024/03/02 10:49:29;;;;;;;3.40;1.70;;;27.90;31.70;;;;;;5052271;28;20496;-67
2024/03/02 10:51:55;;;;;;;1.50;0.83;;;27.70;30.50;;;;;;5051825;28;21002;-67
2024/03/02 10:54:26;;;;;;;1.53;1.10;;;27.20;30.70;;;;;;5052399;28;20406;-67
2024/03/02 10:56:54;;;;;;;0.87;0.70;;;27.00;31.10;;;;;;5052178;28;20195;-66
2024/03/02 10:59:26;;;;;;;4.63;0.97;;;26.90;30.60;;;;;;5052305;28;20456;-67
2024/03/02 11:01:55;;;;;;;1.40;0.90;;;26.50;30.70;;;;;;5052060;28;20453;-68
2024/03/02 11:04:22;;;;;;;0.93;0.83;;;26.80;31.90;;;;;;5052025;28;20431;-67
2024/03/02 11:06:52;;;;;;;1.33;0.90;;;27.60;31.80;;;;;;5052042;28;20952;-67
2024/03/02 11:09:25;;;;;;;2.27;1.00;;;28.30;31.00;;;;;;5052020;28;20477;-67
2024/03/02 11:12:02;;;;;;;5.57;1.20;;;28.60;30.40;;;;;;5052046;28;20903;-68
2024/03/02 11:14:31;;;;;;;3.13;0.90;;;29.20;30.00;;;;;;5051878;28;20734;-68
2024/03/02 11:16:57;;;;;;;1.30;0.80;;;28.50;29.20;;;;;;5051788;28;20429;-67
2024/03/02 11:19:24;;;;;;;1.67;1.07;;;28.10;29.40;;;;;;5043722;28;20440;-67
2024/03/02 11:21:50;;;;;;;5.00;0.90;;;27.60;29.90;;;;;;5051540;28;20461;-67
2024/03/02 11:24:21;;;;;;;1.40;0.97;;;27.80;30.30;;;;;;5051418;28;20743;-68
2024/03/02 11:26:47;;;;;;;1.87;1.17;;;28.20;30.20;;;;;;5051645;28;20425;-67
2024/03/02 11:29:40;;;;;;;1.10;1.00;;;28.10;29.50;;;;;;5045324;28;20409;-68
2024/03/02 11:32:12;;;;;;;2.90;0.70;;;27.80;30.00;;;;;;5032204;28;20167;-68
2024/03/02 11:34:39;;;;;;;1.00;0.77;;;27.90;29.70;;;;;;5051578;28;20962;-67
2024/03/02 11:37:05;;;;;;;1.23;0.83;;;28.20;30.00;;;;;;5051452;28;20443;-68
2024/03/02 11:39:31;;;;;;;1.20;0.90;;;27.70;29.50;;;;;;5051585;28;20405;-68
2024/03/02 11:41:57;;;;;;;1.30;0.97;;;27.40;30.10;;;;;;5051490;28;20845;-68
2024/03/02 11:44:26;;;;;;;0.93;0.73;;;27.70;30.50;;;;;;5054994;28;20463;-68
2024/03/02 11:46:59;;;;;;;3.03;1.00;;;28.90;30.70;;;;;;5053956;28;20697;-68
2024/03/02 11:50:00;;;;;;;1.40;0.97;;;29.20;29.10;;;;;;5055592;28;20924;-68
2024/03/02 11:52:26;;;;;;;3.20;1.07;;;28.90;29.00;;;;;;5013206;28;20545;-68
2024/03/02 11:54:53;;;;;;;1.97;1.30;;;29.30;29.70;;;;;;5045121;28;20456;-68
2024/03/02 11:57:22;;;;;;;1.00;0.90;;;29.90;28.90;;;;;;5055416;28;20428;-68
2024/03/02 11:59:49;;;;;;;2.50;1.03;;;29.40;28.50;;;;;;5055430;28;20535;-67
2024/03/02 12:02:17;;;;;;;2.27;1.83;;;28.20;28.90;;;;;;5055140;28;20938;-67
2024/03/02 12:04:44;;;;;;;1.70;1.60;;;27.30;29.60;;;;;;5055287;28;20409;-67
2024/03/02 12:07:10;;;;;;;3.30;1.80;;;25.80;30.20;;;;;;5055337;28;20688;-68
2024/03/02 12:09:36;;;;;;;1.50;1.40;;;24.70;31.80;;;;;;5055366;28;20409;-68
2024/03/02 12:12:09;;;;;;;3.50;1.53;;;24.20;32.90;;;;;;5055070;28;20409;-67
2024/03/02 12:14:37;;;;;;;1.43;1.33;;;23.40;33.80;;;;;;5055364;28;20171;-67
2024/03/02 12:17:03;;;;;;;1.83;1.60;;;22.60;34.50;;;;;;5054816;28;20906;-67
2024/03/02 12:19:30;;;;;;;1.37;1.20;;;22.00;35.60;;;;;;5045261;28;20424;-67
2024/03/02 12:22:00;;;;;;;1.43;1.33;;;21.60;37.10;;;;;;5043413;28;20466;-66
2024/03/02 12:24:29;;;;;;;1.57;1.30;;;21.10;37.90;;;;;;5029831;28;20464;-67
2024/03/02 12:26:56;;;;;;;1.53;1.37;;;21.00;38.30;;;;;;5032511;28;20444;-67
2024/03/02 12:29:22;;;;;;;1.60;1.40;;;21.10;38.90;;;;;;5029994;28;20418;-67
2024/03/02 12:31:49;;;;;;;1.40;1.30;;;20.50;39.90;;;;;;5036174;28;20928;-67
2024/03/02 12:34:16;;;;;;;2.80;1.27;;;20.40;40.30;;;;;;5029689;28;20821;-67
2024/03/02 12:36:41;;;;;;;1.50;1.33;;;20.40;40.30;;;;;;5036721;28;20413;-67
2024/03/02 12:39:10;;;;;;;1.20;0.90;;;20.20;41.00;;;;;;5042720;28;20482;-66
2024/03/02 12:41:39;;;;;;;1.30;1.10;;;20.10;40.40;;;;;;5036209;28;20256;-67
2024/03/02 12:44:05;;;;;;;1.37;1.27;;;19.70;41.00;;;;;;5039075;28;20851;-66
2024/03/02 12:46:35;;;;;;;1.93;1.30;;;19.30;42.70;;;;;;5044981;28;20447;-67
2024/03/02 12:49:11;;;;;;;2.63;1.40;;;18.70;43.70;;;;;;5041306;28;20413;-66
2024/03/02 12:51:37;;;;;;;1.37;1.27;;;18.40;45.00;;;;;;5042839;28;20503;-70
2024/03/02 12:54:03;;;;;;;1.37;1.23;;;18.00;44.70;;;;;;5042401;28;20522;-69
2024/03/02 12:56:29;;;;;;;1.67;1.10;;;17.70;46.10;;;;;;5050721;28;20413;-69